createdAt,value
2018-08-10T00:02:11.142Z,99.90
2018-08-10T00:04:40.512Z,99.90
2018-08-10T00:07:10.427Z,99.90
2018-08-10T00:09:39.933Z,99.90
2018-08-10T00:12:09.642Z,99.90
2018-08-10T00:14:39.126Z,99.90
2018-08-10T00:17:08.864Z,99.90
2018-08-10T00:19:38.397Z,99.90
2018-08-10T00:22:07.813Z,99.90
2018-08-10T00:24:37.205Z,99.90
2018-08-10T00:27:06.651Z,99.90
2018-08-10T00:29:36.109Z,99.90
2018-08-10T00:32:05.533Z,99.90
2018-08-10T00:34:34.912Z,99.90
2018-08-10T00:37:04.388Z,99.90
2018-08-10T00:39:35.252Z,99.90
2018-08-10T00:42:04.785Z,99.90
2018-08-10T00:44:34.211Z,99.90
2018-08-10T00:47:03.666Z,99.90
2018-08-10T00:49:33.142Z,99.90
2018-08-10T00:52:02.654Z,99.90
2018-08-10T00:54:32.030Z,99.90
2018-08-10T00:57:02.373Z,99.90
2018-08-10T00:59:31.928Z,99.90
2018-08-10T01:02:01.344Z,99.90
2018-08-10T01:04:30.715Z,99.90
2018-08-10T01:07:00.089Z,99.90
2018-08-10T01:09:29.496Z,99.90
2018-08-10T01:11:59.032Z,99.90
2018-08-10T01:14:28.428Z,99.90
2018-08-10T01:16:57.859Z,99.90
2018-08-10T01:19:27.408Z,99.90
2018-08-10T01:21:57.528Z,99.90
2018-08-10T01:24:26.885Z,99.90
2018-08-10T01:26:56.237Z,99.90
2018-08-10T01:29:25.645Z,99.90
2018-08-10T01:31:55.037Z,99.90
2018-08-10T01:34:24.441Z,99.90
2018-08-10T01:36:53.860Z,99.90
2018-08-10T01:39:23.250Z,99.90
2018-08-10T01:41:52.647Z,99.90
2018-08-10T01:44:22.378Z,99.90
2018-08-10T01:46:51.777Z,99.90
2018-08-10T01:49:21.185Z,99.90
2018-08-10T01:51:50.525Z,99.90
2018-08-10T01:54:20.430Z,99.90
2018-08-10T01:56:49.800Z,99.90
2018-08-10T01:59:19.188Z,99.90
2018-08-10T02:01:48.588Z,99.90
2018-08-10T02:04:17.964Z,99.90
2018-08-10T02:06:47.308Z,99.90
2018-08-10T02:09:16.694Z,99.90
2018-08-10T02:11:46.049Z,99.90
2018-08-10T02:14:15.464Z,99.90
2018-08-10T02:16:44.877Z,99.90
2018-08-10T02:19:14.284Z,99.90
2018-08-10T02:21:43.655Z,99.90
2018-08-10T02:24:13.008Z,99.90
2018-08-10T02:26:42.819Z,99.90
2018-08-10T02:29:12.240Z,99.90
2018-08-10T02:31:41.639Z,99.90
2018-08-10T02:34:11.029Z,99.90
2018-08-10T02:36:40.501Z,99.90
2018-08-10T02:39:12.036Z,99.90
2018-08-10T02:41:41.509Z,99.90
2018-08-10T02:44:10.861Z,99.90
2018-08-10T02:46:40.271Z,99.90
2018-08-10T02:49:10.213Z,99.90
2018-08-10T02:51:39.612Z,99.90
2018-08-10T02:54:09.149Z,99.90
2018-08-10T02:56:38.521Z,99.90
2018-08-10T02:59:08.028Z,99.90
2018-08-10T03:01:37.397Z,99.90
2018-08-10T03:04:06.781Z,99.90
2018-08-10T03:06:36.567Z,99.90
2018-08-10T03:09:08.965Z,99.90
2018-08-10T03:11:38.397Z,99.90
2018-08-10T03:14:07.853Z,99.90
2018-08-10T03:16:37.875Z,99.90
2018-08-10T03:19:08.791Z,99.90
2018-08-10T03:21:38.638Z,99.90
2018-08-10T03:24:08.343Z,99.90
2018-08-10T03:26:38.134Z,99.90
2018-08-10T03:29:07.865Z,99.90
2018-08-10T03:31:37.617Z,99.90
2018-08-10T03:34:07.459Z,99.90
2018-08-10T03:36:37.242Z,99.90
2018-08-10T03:39:11.107Z,99.90
2018-08-10T03:41:40.981Z,99.90
2018-08-10T03:44:10.866Z,99.90
2018-08-10T03:46:40.695Z,99.90
2018-08-10T03:49:10.566Z,99.90
2018-08-10T03:51:40.171Z,99.90
2018-08-10T03:54:09.850Z,99.90
2018-08-10T03:56:39.387Z,99.90
2018-08-10T03:59:09.069Z,99.90
2018-08-10T04:01:38.985Z,99.90
2018-08-10T04:04:08.638Z,99.90
2018-08-10T04:06:38.208Z,99.90
2018-08-10T04:09:10.717Z,99.90
2018-08-10T04:11:41.073Z,99.90
2018-08-10T04:14:10.895Z,99.90
2018-08-10T04:16:40.566Z,99.90
2018-08-10T04:19:10.230Z,99.90
2018-08-10T04:21:40.046Z,99.90
2018-08-10T04:24:09.605Z,99.90
2018-08-10T04:26:39.309Z,99.90
2018-08-10T04:29:08.902Z,99.90
2018-08-10T04:31:38.394Z,99.90
2018-08-10T04:34:08.517Z,99.90
2018-08-10T04:36:38.112Z,99.90
2018-08-10T04:39:10.966Z,99.90
2018-08-10T04:41:40.500Z,99.90
2018-08-10T04:44:10.069Z,99.90
2018-08-10T04:46:39.634Z,99.90
2018-08-10T04:49:09.424Z,99.90
2018-08-10T04:51:39.482Z,99.90
2018-08-10T04:54:09.158Z,99.90
2018-08-10T04:56:38.801Z,99.90
2018-08-10T04:59:08.352Z,99.90
2018-08-10T05:01:37.868Z,99.90
2018-08-10T05:04:07.684Z,99.90
2018-08-10T05:06:37.322Z,99.90
2018-08-10T05:09:10.375Z,99.90
2018-08-10T05:11:40.107Z,99.90
2018-08-10T05:14:10.123Z,99.90
2018-08-10T05:16:39.725Z,99.90
2018-08-10T05:19:09.830Z,99.90
2018-08-10T05:21:40.110Z,99.90
2018-08-10T05:24:09.920Z,99.90
2018-08-10T05:26:39.853Z,99.90
2018-08-10T05:29:09.417Z,99.90
2018-08-10T05:31:39.066Z,99.90
2018-08-10T05:34:08.723Z,99.90
2018-08-10T05:37:11.143Z,99.90
2018-08-10T05:39:40.870Z,99.90
2018-08-10T05:42:10.774Z,99.90
2018-08-10T05:44:40.312Z,99.90
2018-08-10T05:47:09.915Z,99.90
2018-08-10T05:49:39.583Z,99.90
2018-08-10T05:52:09.237Z,99.90
2018-08-10T05:54:38.782Z,99.90
2018-08-10T05:57:08.389Z,99.90
2018-08-10T05:59:38.080Z,99.90
2018-08-10T06:02:07.615Z,99.90
2018-08-10T06:04:37.170Z,99.90
2018-08-10T06:07:06.746Z,99.90
2018-08-10T06:09:38.020Z,99.90
2018-08-10T06:12:07.601Z,99.90
2018-08-10T06:14:37.259Z,99.90
2018-08-10T06:17:07.725Z,99.90
2018-08-10T06:19:37.401Z,99.90
2018-08-10T06:22:07.082Z,99.90
2018-08-10T06:24:37.169Z,99.90
2018-08-10T06:27:06.780Z,99.90
2018-08-10T06:29:36.937Z,99.90
2018-08-10T06:32:06.513Z,99.90
2018-08-10T06:34:36.093Z,99.90
2018-08-10T06:37:05.691Z,99.90
2018-08-10T06:39:35.524Z,99.90
2018-08-10T06:42:11.383Z,99.90
2018-08-10T06:44:41.028Z,99.90
2018-08-10T06:47:10.603Z,99.90
2018-08-10T06:49:40.286Z,99.90
2018-08-10T06:52:09.831Z,99.90
2018-08-10T06:54:39.428Z,99.90
2018-08-10T06:57:09.010Z,99.90
2018-08-10T06:59:39.089Z,99.90
2018-08-10T07:02:08.668Z,99.90
2018-08-10T07:04:38.181Z,99.90
2018-08-10T07:07:12.079Z,99.90
2018-08-10T07:11:01.056Z,99.90
2018-08-10T07:13:31.185Z,99.90
2018-08-10T07:16:00.697Z,99.90
2018-08-10T07:18:30.322Z,99.90
2018-08-10T07:21:00.046Z,99.90
2018-08-10T07:23:29.607Z,99.90
2018-08-10T07:25:59.563Z,99.90
2018-08-10T07:28:29.357Z,99.90
2018-08-10T07:30:59.352Z,99.90
2018-08-10T07:33:29.028Z,99.90
2018-08-10T07:35:58.751Z,99.90
2018-08-10T07:38:28.341Z,99.90
2018-08-10T07:40:58.134Z,99.90
2018-08-10T07:43:27.769Z,99.90
2018-08-10T07:45:58.263Z,99.90
2018-08-10T07:48:27.831Z,99.90
2018-08-10T07:50:57.462Z,99.90
2018-08-10T07:53:27.357Z,99.90
2018-08-10T07:55:56.913Z,99.90
2018-08-10T07:58:26.554Z,99.90
2018-08-10T08:00:57.409Z,99.90
2018-08-10T08:03:27.326Z,99.90
2018-08-10T08:06:00.358Z,99.90
2018-08-10T08:08:29.989Z,99.90
2018-08-10T08:10:59.856Z,99.90
2018-08-10T08:13:29.543Z,99.90
2018-08-10T08:15:59.906Z,99.90
2018-08-10T08:18:29.681Z,99.90
2018-08-10T08:21:12.707Z,99.90
2018-08-10T08:23:42.518Z,99.90
2018-08-10T08:26:12.177Z,99.90
2018-08-10T08:28:42.018Z,99.90
2018-08-10T08:31:11.776Z,99.90
2018-08-10T08:33:52.219Z,99.90
2018-08-10T08:36:21.937Z,99.90
2018-08-10T08:40:32.089Z,99.90
2018-08-10T08:43:01.952Z,99.90
2018-08-10T08:46:11.081Z,99.90
2018-08-10T08:48:48.455Z,99.90
2018-08-10T08:51:20.643Z,99.90
2018-08-10T08:53:59.739Z,99.90
2018-08-10T08:56:35.467Z,99.90
2018-08-10T08:59:05.552Z,99.90
2018-08-10T09:01:35.251Z,99.90
2018-08-10T09:04:24.597Z,99.90
2018-08-10T09:06:54.147Z,99.20
2018-08-10T09:09:37.741Z,99.80
2018-08-10T09:12:07.561Z,99.90
2018-08-10T09:14:42.772Z,99.90
2018-08-10T09:17:12.540Z,99.90
2018-08-10T09:19:42.601Z,99.90
2018-08-10T09:22:13.640Z,99.10
2018-08-10T09:24:43.668Z,95.50
2018-08-10T09:27:13.299Z,92.60
2018-08-10T09:29:43.442Z,92.20
2018-08-10T09:32:13.100Z,93.30
2018-08-10T09:34:42.763Z,92.40
2018-08-10T09:37:12.707Z,92.70
2018-08-10T09:39:42.321Z,93.20
2018-08-10T09:42:12.125Z,92.90
2018-08-10T09:44:41.990Z,94.30
2018-08-10T09:47:11.854Z,91.70
2018-08-10T09:49:47.359Z,90.20
2018-08-10T09:52:17.157Z,88.00
2018-08-10T09:55:29.904Z,91.50
2018-08-10T09:58:01.842Z,91.90
2018-08-10T10:00:37.194Z,91.60
2018-08-10T10:03:12.640Z,91.30
2018-08-10T10:05:42.467Z,90.30
2018-08-10T10:08:12.307Z,90.20
2018-08-10T10:10:42.068Z,90.40
2018-08-10T10:13:11.710Z,88.60
2018-08-10T10:15:41.540Z,85.80
2018-08-10T10:18:12.650Z,84.70
2018-08-10T10:20:42.692Z,82.80
2018-08-10T10:23:12.515Z,85.50
2018-08-10T10:25:42.340Z,88.90
2018-08-10T10:28:12.098Z,86.10
2018-08-10T10:30:42.140Z,86.10
2018-08-10T10:33:11.994Z,90.50
2018-08-10T10:35:41.761Z,81.00
2018-08-10T10:38:11.434Z,81.70
2018-08-10T10:40:41.203Z,78.30
2018-08-10T10:43:10.767Z,84.30
2018-08-10T10:45:40.436Z,83.90
2018-08-10T10:48:10.123Z,77.30
2018-08-10T10:50:39.797Z,74.30
2018-08-10T10:53:09.736Z,78.80
2018-08-10T10:55:39.515Z,76.40
2018-08-10T10:58:15.497Z,80.60
2018-08-10T11:00:46.049Z,76.50
2018-08-10T11:03:15.680Z,79.50
2018-08-10T11:05:45.291Z,78.80
2018-08-10T11:08:15.010Z,77.70
2018-08-10T11:10:44.741Z,77.20
2018-08-10T11:13:14.372Z,72.80
2018-08-10T11:15:43.960Z,72.10
2018-08-10T11:18:13.938Z,72.60
2018-08-10T11:20:43.898Z,71.70
2018-08-10T11:23:13.665Z,72.20
2018-08-10T11:25:43.498Z,70.60
2018-08-10T11:28:13.132Z,75.20
2018-08-10T11:30:42.956Z,79.70
2018-08-10T11:33:13.316Z,71.40
2018-08-10T11:35:42.924Z,78.20
2018-08-10T11:38:12.605Z,71.50
2018-08-10T11:40:42.472Z,75.80
2018-08-10T11:43:12.229Z,73.10
2018-08-10T11:45:41.910Z,67.80
2018-08-10T11:48:11.663Z,70.20
2018-08-10T11:50:41.497Z,66.70
2018-08-10T11:53:11.260Z,71.20
2018-08-10T11:55:41.810Z,64.60
2018-08-10T11:58:11.418Z,71.30
2018-08-10T12:00:41.225Z,73.30
2018-08-10T12:03:10.936Z,69.60
2018-08-10T12:05:40.676Z,71.50
2018-08-10T12:08:10.342Z,66.60
2018-08-10T12:10:39.948Z,60.40
2018-08-10T12:13:09.617Z,62.10
2018-08-10T12:15:39.142Z,67.00
2018-08-10T12:18:09.588Z,57.80
2018-08-10T12:20:39.239Z,59.40
2018-08-10T12:23:08.938Z,60.00
2018-08-10T12:25:38.664Z,60.80
2018-08-10T12:28:08.504Z,60.30
2018-08-10T12:30:40.470Z,63.70
2018-08-10T12:33:10.887Z,61.90
2018-08-10T12:35:41.388Z,68.70
2018-08-10T12:38:14.745Z,62.90
2018-08-10T12:40:47.810Z,59.40
2018-08-10T12:43:17.478Z,60.90
2018-08-10T12:45:47.035Z,60.50
2018-08-10T12:48:17.055Z,61.90
2018-08-10T12:50:46.933Z,61.70
2018-08-10T12:53:16.517Z,59.60
2018-08-10T12:55:49.305Z,61.60
2018-08-10T12:58:19.390Z,56.60
2018-08-10T13:00:49.060Z,56.70
2018-08-10T13:03:19.241Z,70.70
2018-08-10T13:05:49.406Z,70.10
2018-08-10T13:08:19.131Z,61.20
2018-08-10T13:10:48.931Z,59.60
2018-08-10T13:13:18.573Z,58.00
2018-08-10T13:15:48.268Z,55.60
2018-08-10T13:18:17.897Z,58.20
2018-08-10T13:20:47.549Z,57.50
2018-08-10T13:23:17.069Z,54.80
2018-08-10T13:25:46.734Z,55.30
2018-08-10T13:28:16.388Z,54.90
2018-08-10T13:30:46.451Z,56.90
2018-08-10T13:33:16.199Z,52.70
2018-08-10T13:35:45.767Z,57.10
2018-08-10T13:38:15.964Z,54.00
2018-08-10T13:40:46.619Z,53.40
2018-08-10T13:43:16.133Z,57.50
2018-08-10T13:45:45.762Z,63.30
2018-08-10T13:48:15.342Z,56.90
2018-08-10T13:50:45.074Z,54.40
2018-08-10T13:53:14.644Z,51.40
2018-08-10T13:55:44.161Z,52.40
2018-08-10T13:58:13.808Z,51.30
2018-08-10T14:00:44.443Z,49.70
2018-08-10T14:03:14.388Z,49.60
2018-08-10T14:05:44.009Z,48.10
2018-08-10T14:08:13.695Z,52.40
2018-08-10T14:10:43.496Z,53.00
2018-08-10T14:13:13.919Z,51.10
2018-08-10T14:15:43.603Z,49.60
2018-08-10T14:18:13.118Z,50.90
2018-08-10T14:20:42.865Z,51.60
2018-08-10T14:23:12.485Z,51.10
2018-08-10T14:25:42.033Z,51.50
2018-08-10T14:28:11.604Z,48.90
2018-08-10T14:30:41.373Z,50.00
2018-08-10T14:33:10.939Z,49.50
2018-08-10T14:35:40.591Z,47.80
2018-08-10T14:38:10.291Z,49.80
2018-08-10T14:40:39.948Z,49.60
2018-08-10T14:43:10.256Z,47.50
2018-08-10T14:45:40.048Z,47.70
2018-08-10T14:48:09.734Z,45.90
2018-08-10T14:50:39.451Z,44.00
2018-08-10T14:53:09.067Z,45.50
2018-08-10T14:55:38.889Z,45.50
2018-08-10T14:58:08.690Z,46.80
2018-08-10T15:00:38.450Z,46.20
2018-08-10T15:03:08.437Z,48.10
2018-08-10T15:05:38.306Z,48.20
2018-08-10T15:08:08.500Z,48.50
2018-08-10T15:10:38.325Z,45.50
2018-08-10T15:13:08.162Z,47.70
2018-08-10T15:15:38.292Z,47.60
2018-08-10T15:18:08.039Z,47.70
2018-08-10T15:20:37.742Z,46.60
2018-08-10T15:23:07.741Z,45.70
2018-08-10T15:25:38.665Z,46.00
2018-08-10T15:28:08.330Z,45.00
2018-08-10T15:30:38.054Z,44.00
2018-08-10T15:33:07.883Z,44.30
2018-08-10T15:35:38.345Z,45.30
2018-08-10T15:38:08.025Z,46.40
2018-08-10T15:40:38.097Z,43.00
2018-08-10T15:43:07.872Z,44.40
2018-08-10T15:45:38.044Z,44.90
2018-08-10T15:48:09.298Z,43.20
2018-08-10T15:50:39.039Z,44.50
2018-08-10T15:53:08.577Z,46.10
2018-08-10T15:55:38.275Z,44.10
2018-08-10T15:58:08.018Z,42.50
2018-08-10T16:00:37.746Z,42.70
2018-08-10T16:03:07.920Z,43.50
2018-08-10T16:05:37.463Z,43.70
2018-08-10T16:08:08.650Z,44.80
2018-08-10T16:10:38.503Z,46.80
2018-08-10T16:13:08.612Z,51.90
2018-08-10T16:15:38.370Z,52.80
2018-08-10T16:18:08.476Z,52.20
2018-08-10T16:20:38.200Z,54.80
2018-08-10T16:23:07.853Z,63.60
2018-08-10T16:25:37.385Z,56.20
2018-08-10T16:28:07.131Z,57.40
2018-08-10T16:30:37.062Z,67.80
2018-08-10T16:33:06.880Z,63.80
2018-08-10T16:35:36.517Z,66.50
2018-08-10T16:38:06.239Z,66.30
2018-08-10T16:40:35.906Z,63.40
2018-08-10T16:43:05.584Z,63.70
2018-08-10T16:45:35.584Z,69.30
2018-08-10T16:48:06.254Z,72.50
2018-08-10T16:50:35.914Z,65.10
2018-08-10T16:53:05.683Z,67.10
2018-08-10T16:55:35.189Z,64.50
2018-08-10T16:58:05.057Z,69.60
2018-08-10T17:00:34.866Z,80.60
2018-08-10T17:03:04.926Z,71.90
2018-08-10T17:05:34.600Z,79.50
2018-08-10T17:08:04.510Z,80.70
2018-08-10T17:10:34.274Z,81.40
2018-08-10T17:13:04.055Z,86.70
2018-08-10T17:15:33.809Z,75.90
2018-08-10T17:18:05.282Z,73.60
2018-08-10T17:20:36.218Z,83.00
2018-08-10T17:23:07.068Z,84.00
2018-08-10T17:25:37.426Z,83.50
2018-08-10T17:28:07.274Z,80.70
2018-08-10T17:30:37.236Z,84.00
2018-08-10T17:33:07.228Z,78.90
2018-08-10T17:35:36.870Z,83.30
2018-08-10T17:38:06.637Z,85.10
2018-08-10T17:40:36.375Z,89.50
2018-08-10T17:43:06.367Z,85.30
2018-08-10T17:45:36.017Z,80.60
2018-08-10T17:48:05.897Z,86.60
2018-08-10T17:50:36.421Z,85.00
2018-08-10T17:53:06.137Z,86.80
2018-08-10T17:55:35.681Z,89.60
2018-08-10T17:58:05.425Z,92.10
2018-08-10T18:00:35.145Z,87.90
2018-08-10T18:03:05.008Z,91.70
2018-08-10T18:05:34.687Z,92.40
2018-08-10T18:08:04.804Z,88.80
2018-08-10T18:10:34.515Z,85.10
2018-08-10T18:13:04.249Z,88.80
2018-08-10T18:15:33.955Z,89.20
2018-08-10T18:18:03.582Z,91.10
2018-08-10T18:20:33.295Z,90.70
2018-08-10T18:23:04.071Z,87.00
2018-08-10T18:25:34.435Z,90.60
2018-08-10T18:28:04.225Z,89.30
2018-08-10T18:30:37.864Z,87.00
2018-08-10T18:33:08.052Z,87.60
2018-08-10T18:35:38.504Z,91.30
2018-08-10T18:38:08.250Z,90.60
2018-08-10T18:40:38.005Z,90.60
2018-08-10T18:43:07.739Z,83.70
2018-08-10T18:45:37.662Z,90.10
2018-08-10T18:48:08.417Z,90.40
2018-08-10T18:50:42.748Z,90.90
2018-08-10T18:53:12.503Z,90.30
2018-08-10T18:55:42.136Z,91.00
2018-08-10T18:58:11.809Z,89.80
2018-08-10T19:00:41.532Z,87.00
2018-08-10T19:03:11.245Z,91.60
2018-08-10T19:05:40.872Z,88.50
2018-08-10T19:08:10.451Z,91.60
2018-08-10T19:10:40.223Z,90.10
2018-08-10T19:13:09.948Z,90.90
2018-08-10T19:15:39.851Z,92.40
2018-08-10T19:18:09.755Z,90.00
2018-08-10T19:20:39.538Z,86.20
2018-08-10T19:23:09.410Z,91.90
2018-08-10T19:25:40.251Z,92.00
2018-08-10T19:28:10.044Z,91.50
2018-08-10T19:30:40.692Z,93.40
2018-08-10T19:33:10.295Z,90.30
2018-08-10T19:35:39.983Z,88.10
2018-08-10T19:38:09.537Z,92.90
2018-08-10T19:40:39.357Z,88.50
2018-08-10T19:43:08.871Z,93.60
2018-08-10T19:45:39.827Z,95.30
2018-08-10T19:48:13.999Z,95.70
2018-08-10T19:50:43.932Z,95.30
2018-08-10T19:53:13.756Z,90.90
2018-08-10T19:55:44.980Z,92.70
2018-08-10T19:58:14.745Z,91.70
2018-08-10T20:00:44.421Z,97.30
2018-08-10T20:03:14.121Z,95.00
2018-08-10T20:05:43.676Z,94.20
2018-08-10T20:08:13.390Z,97.60
2018-08-10T20:10:43.332Z,99.00
2018-08-10T20:13:13.201Z,98.90
2018-08-10T20:15:43.153Z,98.60
2018-08-10T20:18:12.939Z,98.40
2018-08-10T20:20:43.750Z,99.90
2018-08-10T20:23:13.806Z,99.90
2018-08-10T20:25:44.039Z,99.90
2018-08-10T20:28:14.124Z,99.90
2018-08-10T20:30:44.280Z,99.90
2018-08-10T20:33:16.266Z,99.90
2018-08-10T20:35:46.277Z,99.90
2018-08-10T20:38:16.325Z,99.90
2018-08-10T20:40:46.660Z,99.90
2018-08-10T20:43:16.112Z,99.90
2018-08-10T20:45:45.462Z,99.00
2018-08-10T20:48:18.785Z,99.90
2018-08-10T20:50:49.410Z,99.90
2018-08-10T20:53:20.224Z,99.90
2018-08-10T20:55:55.063Z,99.90
2018-08-10T20:58:24.456Z,99.90
2018-08-10T21:00:59.043Z,99.90
2018-08-10T21:03:30.076Z,99.90
2018-08-10T21:06:02.457Z,99.90
2018-08-10T21:08:34.079Z,99.90
2018-08-10T21:11:03.563Z,99.90
2018-08-10T21:13:33.128Z,99.90
2018-08-10T21:16:02.544Z,99.90
2018-08-10T21:18:32.135Z,99.90
2018-08-10T21:21:01.574Z,99.90
2018-08-10T21:23:30.977Z,99.90
2018-08-10T21:26:00.332Z,99.90
2018-08-10T21:28:30.090Z,99.90
2018-08-10T21:30:59.496Z,99.90
2018-08-10T21:33:29.027Z,99.90
2018-08-10T21:35:58.418Z,99.90
2018-08-10T21:38:27.804Z,99.50
2018-08-10T21:40:57.207Z,99.00
2018-08-10T21:43:26.723Z,99.90
2018-08-10T21:45:56.067Z,99.90
2018-08-10T21:48:25.712Z,99.70
2018-08-10T21:50:55.100Z,99.90
2018-08-10T21:53:24.504Z,99.90
2018-08-10T21:55:54.054Z,99.90
2018-08-10T21:58:23.452Z,99.90
2018-08-10T22:01:02.848Z,99.90
2018-08-10T22:03:32.461Z,99.90
2018-08-10T22:06:01.816Z,99.90
2018-08-10T22:08:32.202Z,99.90
2018-08-10T22:11:01.611Z,99.90
2018-08-10T22:13:36.068Z,99.90
2018-08-10T22:16:10.776Z,99.90
2018-08-10T22:18:45.592Z,99.90
2018-08-10T22:21:14.993Z,99.90
2018-08-10T22:23:44.397Z,99.90
2018-08-10T22:26:13.916Z,99.80
2018-08-10T22:28:43.268Z,99.90
2018-08-10T22:31:13.012Z,99.50
2018-08-10T22:33:42.469Z,99.20
2018-08-10T22:36:11.895Z,99.90
2018-08-10T22:38:41.270Z,99.90
2018-08-10T22:41:10.726Z,99.40
2018-08-10T22:43:41.005Z,98.60
2018-08-10T22:46:10.369Z,99.90
2018-08-10T22:48:39.859Z,99.10
2018-08-10T22:51:09.647Z,99.50
2018-08-10T22:53:39.323Z,98.30
2018-08-10T22:56:09.248Z,99.70
2018-08-10T22:58:38.697Z,99.90
2018-08-10T23:01:08.257Z,99.90
2018-08-10T23:03:37.626Z,99.90
2018-08-10T23:06:07.146Z,99.90
2018-08-10T23:08:36.620Z,99.90
2018-08-10T23:11:06.017Z,99.90
2018-08-10T23:13:35.396Z,99.90
2018-08-10T23:16:04.872Z,99.90
2018-08-10T23:18:34.229Z,99.90
2018-08-10T23:21:03.721Z,99.90
2018-08-10T23:23:33.177Z,99.90
2018-08-10T23:26:02.639Z,99.90
2018-08-10T23:28:32.072Z,99.90
2018-08-10T23:31:01.578Z,99.90
2018-08-10T23:33:30.948Z,99.90
2018-08-10T23:36:00.352Z,99.90
2018-08-10T23:38:29.732Z,99.90
2018-08-10T23:40:59.536Z,99.90
2018-08-10T23:43:28.949Z,99.90
2018-08-10T23:45:58.377Z,99.90
2018-08-10T23:48:27.796Z,99.90
2018-08-10T23:50:57.182Z,99.90
2018-08-10T23:53:26.543Z,99.90
2018-08-10T23:55:55.912Z,99.90
2018-08-10T23:58:25.411Z,99.90
